Time;durP1;ratioP1;P1;durP2;ratioP2;P2;SDS_P1;SDS_P2;PMS_P1;PMS_P2;Temp;Humidity;BMP_temperature;BMP_pressure;BME280_temperature;BME280_humidity;BME280_pressure;Samples;Min_cycle;Max_cycle;Signal;HPM_P1;HPM_P2
2023/12/06 00:01:42;;;;;;;9.17;5.37;;;6.80;99.90;;;;;;5002148;28;20454;-22
2023/12/06 00:04:08;;;;;;;10.00;4.90;;;6.80;99.90;;;;;;5025768;28;20028;-22
2023/12/06 00:06:33;;;;;;;10.90;5.70;;;6.80;99.90;;;;;;5024188;28;20230;-22
2023/12/06 00:08:59;;;;;;;9.77;5.27;;;6.80;99.90;;;;;;5002518;28;20028;-22
2023/12/06 00:11:25;;;;;;;10.50;4.97;;;6.80;99.90;;;;;;5003882;28;20045;-22
2023/12/06 00:13:51;;;;;;;10.27;4.93;;;6.80;99.90;;;;;;5013182;28;20313;-22
2023/12/06 00:16:17;;;;;;;9.30;4.90;;;6.90;99.90;;;;;;5003006;28;20398;-22
2023/12/06 00:18:45;;;;;;;9.52;4.70;;;6.80;99.90;;;;;;5024562;28;20032;-22
2023/12/06 00:21:11;;;;;;;9.48;5.20;;;9.30;99.90;;;;;;5008232;28;20037;-22
2023/12/06 00:23:37;;;;;;;11.27;5.70;;;6.90;99.90;;;;;;4985026;28;20464;-22
2023/12/06 00:26:03;;;;;;;9.95;4.97;;;6.90;99.90;;;;;;5017891;28;20025;-22
2023/12/06 00:28:29;;;;;;;11.23;5.57;;;6.90;99.90;;;;;;5025639;28;20060;-22
2023/12/06 00:30:54;;;;;;;9.30;5.07;;;6.90;99.90;;;;;;5019045;28;20175;-22
2023/12/06 00:33:20;;;;;;;7.20;4.37;;;6.90;99.90;;;;;;4984931;28;20033;-22
2023/12/06 00:35:45;;;;;;;8.47;4.67;;;7.00;99.90;;;;;;5030039;28;20284;-22
2023/12/06 00:38:13;;;;;;;7.70;4.57;;;6.90;99.90;;;;;;5005984;28;20056;-22
2023/12/06 00:40:39;;;;;;;9.88;5.10;;;7.00;99.90;;;;;;5012774;28;20088;-22
2023/12/06 00:43:04;;;;;;;8.23;4.60;;;7.00;99.90;;;;;;5021731;28;20543;-22
2023/12/06 00:45:30;;;;;;;10.70;5.13;;;7.00;99.90;;;;;;5022808;28;20240;-22
2023/12/06 00:47:56;;;;;;;8.95;4.97;;;7.00;99.90;;;;;;5020423;28;20466;-22
2023/12/06 00:50:21;;;;;;;11.33;5.23;;;7.00;99.90;;;;;;5027641;28;20294;-22
2023/12/06 00:52:48;;;;;;;11.23;5.60;;;7.00;99.90;;;;;;5027772;28;20561;-22
2023/12/06 00:55:14;;;;;;;10.07;5.30;;;7.00;99.90;;;;;;5003181;28;20501;-22
2023/12/06 00:57:40;;;;;;;9.80;5.35;;;7.00;99.90;;;;;;5021049;28;20056;-22
2023/12/06 01:00:07;;;;;;;10.17;4.97;;;7.00;99.90;;;;;;5007249;28;20065;-22
2023/12/06 01:02:32;;;;;;;11.20;5.25;;;7.10;99.90;;;;;;5022093;28;20115;-22
2023/12/06 01:04:58;;;;;;;10.00;5.50;;;7.00;99.90;;;;;;4988775;28;20037;-22
2023/12/06 01:07:24;;;;;;;9.83;4.97;;;7.00;99.90;;;;;;5022968;28;20017;-22
2023/12/06 01:09:50;;;;;;;10.07;5.20;;;7.00;99.90;;;;;;5001164;28;20028;-22
2023/12/06 01:12:15;;;;;;;9.80;5.27;;;7.10;99.90;;;;;;5025388;28;20048;-22
2023/12/06 01:14:41;;;;;;;10.93;5.40;;;7.10;99.90;;;;;;5023557;28;20035;-22
2023/12/06 01:17:07;;;;;;;9.40;4.87;;;7.10;99.90;;;;;;5020361;28;20108;-22
2023/12/06 01:19:32;;;;;;;10.40;5.05;;;7.10;99.90;;;;;;5014892;28;20037;-22
2023/12/06 01:21:58;;;;;;;8.27;4.80;;;7.10;99.90;;;;;;5013672;28;20103;-22
2023/12/06 01:24:24;;;;;;;8.80;4.55;;;7.10;99.90;;;;;;5014545;28;20541;-22
2023/12/06 01:26:50;;;;;;;8.82;4.88;;;7.10;99.90;;;;;;4988831;28;20041;-22
2023/12/06 01:29:16;;;;;;;8.70;4.57;;;7.20;99.90;;;;;;5008480;28;20040;-22
2023/12/06 01:31:42;;;;;;;10.73;5.45;;;7.20;99.90;;;;;;5015106;28;20063;-22
2023/12/06 01:34:08;;;;;;;9.63;5.18;;;7.20;99.90;;;;;;5027609;28;20033;-22
2023/12/06 01:36:35;;;;;;;12.37;5.60;;;7.20;99.90;;;;;;5015617;28;20025;-22
2023/12/06 01:39:01;;;;;;;9.73;5.20;;;7.20;99.90;;;;;;5009471;28;20025;-22
2023/12/06 01:41:26;;;;;;;8.98;4.72;;;7.30;99.90;;;;;;5002358;28;20013;-22
2023/12/06 01:43:52;;;;;;;8.90;4.83;;;7.30;99.90;;;;;;5014823;28;20706;-22
2023/12/06 01:46:19;;;;;;;9.13;4.32;;;7.30;99.90;;;;;;5030927;28;20032;-22
2023/12/06 01:48:46;;;;;;;10.32;5.45;;;7.30;99.90;;;;;;4997356;28;20529;-22
2023/12/06 01:51:14;;;;;;;7.73;4.50;;;7.30;99.90;;;;;;4994894;28;20075;-22
2023/12/06 01:53:40;;;;;;;9.05;4.70;;;7.30;99.90;;;;;;5025872;28;20072;-22
2023/12/06 01:56:07;;;;;;;8.13;4.13;;;7.40;99.90;;;;;;5031460;28;20115;-22
2023/12/06 01:58:35;;;;;;;10.95;5.22;;;7.30;99.90;;;;;;4997799;28;20044;-22
2023/12/06 02:01:02;;;;;;;9.50;4.60;;;7.40;99.90;;;;;;5009496;28;20701;-22
2023/12/06 02:03:28;;;;;;;11.83;5.53;;;7.30;99.90;;;;;;5018087;28;20029;-22
2023/12/06 02:05:54;;;;;;;10.73;5.13;;;7.30;99.90;;;;;;5016086;28;20111;-22
2023/12/06 02:08:20;;;;;;;10.60;5.25;;;7.30;99.90;;;;;;5014586;28;20531;-22
2023/12/06 02:10:45;;;;;;;10.70;5.67;;;6.80;99.90;;;;;;5013669;28;20150;-22
2023/12/06 02:13:11;;;;;;;9.07;4.57;;;7.30;99.90;;;;;;5001102;28;20319;-22
2023/12/06 02:15:37;;;;;;;13.05;5.68;;;7.30;99.90;;;;;;4983567;28;20045;-22
2023/12/06 02:18:04;;;;;;;11.67;5.30;;;7.30;99.90;;;;;;5017929;28;20121;-22
2023/12/06 02:20:30;;;;;;;10.15;5.03;;;7.30;99.90;;;;;;5022754;28;20542;-22
2023/12/06 02:22:58;;;;;;;9.68;4.93;;;7.30;99.90;;;;;;5020268;28;20078;-22
2023/12/06 02:25:24;;;;;;;11.15;5.50;;;7.30;99.90;;;;;;5029086;28;20029;-22
2023/12/06 02:27:50;;;;;;;11.95;6.13;;;7.30;99.90;;;;;;4967262;28;20037;-22
2023/12/06 02:30:16;;;;;;;10.70;5.40;;;7.30;99.90;;;;;;5026911;28;20084;-22
2023/12/06 02:32:42;;;;;;;11.48;5.55;;;7.30;99.90;;;;;;5015893;28;20025;-22
2023/12/06 02:35:23;;;;;;;10.00;4.93;;;7.30;99.90;;;;;;4994068;28;20025;-22
2023/12/06 02:37:51;;;;;;;10.70;4.95;;;7.30;99.90;;;;;;4998175;28;20132;-22
2023/12/06 02:40:19;;;;;;;11.00;5.50;;;7.30;99.90;;;;;;5010227;28;20470;-22
2023/12/06 02:42:45;;;;;;;10.68;5.10;;;7.30;99.90;;;;;;4999477;28;20659;-22
2023/12/06 02:45:11;;;;;;;8.93;4.90;;;7.30;99.90;;;;;;5025958;28;20088;-22
2023/12/06 02:47:37;;;;;;;7.93;4.27;;;7.30;99.90;;;;;;4997622;28;20323;-22
2023/12/06 02:50:03;;;;;;;8.73;4.30;;;7.30;99.90;;;;;;5001685;28;20208;-22
2023/12/06 02:52:28;;;;;;;9.18;4.30;;;7.30;99.90;;;;;;5016429;28;20052;-22
2023/12/06 02:54:54;;;;;;;8.03;4.73;;;7.30;99.90;;;;;;5024091;28;20620;-23
2023/12/06 02:57:20;;;;;;;9.73;5.18;;;7.30;99.90;;;;;;5030101;28;20036;-22
2023/12/06 02:59:45;;;;;;;10.80;5.23;;;7.30;99.90;;;;;;4988772;28;20037;-22
2023/12/06 03:02:11;;;;;;;11.30;5.68;;;7.30;99.90;;;;;;5026968;28;20036;-22
2023/12/06 03:04:37;;;;;;;9.77;4.60;;;7.30;99.90;;;;;;5017142;28;20075;-22
2023/12/06 03:07:03;;;;;;;9.50;4.80;;;7.30;99.90;;;;;;5006142;28;20083;-22
2023/12/06 03:09:29;;;;;;;9.80;4.67;;;7.30;99.90;;;;;;5022320;28;20029;-22
2023/12/06 03:11:54;;;;;;;8.40;4.50;;;7.30;99.90;;;;;;4992678;28;20695;-22
2023/12/06 03:14:20;;;;;;;10.53;5.20;;;7.30;99.90;;;;;;5001702;28;20102;-23
2023/12/06 03:16:46;;;;;;;11.52;5.25;;;7.30;99.90;;;;;;5014330;28;20033;-22
2023/12/06 03:19:11;;;;;;;10.20;4.43;;;7.30;99.90;;;;;;5017181;28;20021;-23
2023/12/06 03:21:37;;;;;;;9.27;4.72;;;7.30;99.90;;;;;;5016577;28;20021;-22
2023/12/06 03:24:03;;;;;;;10.33;5.10;;;7.30;99.90;;;;;;5014672;28;20097;-22
2023/12/06 03:26:29;;;;;;;9.23;4.72;;;7.30;99.90;;;;;;5026805;28;20029;-22
2023/12/06 03:28:54;;;;;;;11.07;5.10;;;7.30;99.90;;;;;;4982296;28;20237;-23
2023/12/06 03:31:20;;;;;;;10.15;5.20;;;7.30;99.90;;;;;;5000890;28;20079;-22
2023/12/06 03:33:46;;;;;;;10.47;5.53;;;7.30;99.90;;;;;;5015733;28;20187;-22
2023/12/06 03:36:12;;;;;;;11.57;5.65;;;7.30;99.90;;;;;;5019292;28;20056;-23
2023/12/06 03:38:39;;;;;;;11.05;5.63;;;7.30;99.90;;;;;;5015888;28;20021;-22
2023/12/06 03:41:05;;;;;;;10.17;4.70;;;7.30;99.90;;;;;;5024693;28;20403;-23
2023/12/06 03:43:31;;;;;;;11.05;5.78;;;7.30;99.90;;;;;;5014799;28;20110;-22
2023/12/06 03:45:57;;;;;;;11.30;5.13;;;7.30;99.90;;;;;;5013232;28;20228;-22
2023/12/06 03:48:22;;;;;;;10.80;4.97;;;7.30;99.90;;;;;;5023864;28;20032;-22
2023/12/06 03:50:48;;;;;;;10.32;5.43;;;7.30;99.90;;;;;;5015151;28;20080;-22
2023/12/06 03:53:14;;;;;;;10.90;5.50;;;7.30;99.90;;;;;;5016478;28;20060;-22
2023/12/06 03:55:39;;;;;;;11.70;5.30;;;7.30;99.90;;;;;;4983529;28;20113;-22
2023/12/06 03:58:06;;;;;;;10.67;4.97;;;7.30;99.90;;;;;;5024256;28;20290;-22
2023/12/06 04:00:32;;;;;;;9.27;4.85;;;7.30;99.90;;;;;;4998528;28;20399;-22
2023/12/06 04:02:57;;;;;;;10.27;4.73;;;7.30;99.90;;;;;;5007724;28;20036;-22
2023/12/06 04:05:23;;;;;;;9.88;4.85;;;7.30;99.90;;;;;;5016444;28;20021;-20
2023/12/06 04:07:49;;;;;;;10.70;4.97;;;7.20;99.90;;;;;;5015534;28;20403;-20
2023/12/06 04:10:15;;;;;;;9.67;5.20;;;7.30;99.90;;;;;;5019729;28;20318;-20
2023/12/06 04:12:41;;;;;;;10.75;4.95;;;7.20;99.90;;;;;;5025863;28;20462;-21
2023/12/06 04:15:07;;;;;;;10.60;4.87;;;7.20;99.90;;;;;;4993974;28;20386;-20
2023/12/06 04:17:32;;;;;;;10.88;5.45;;;7.20;99.90;;;;;;5028903;28;21532;-21
2023/12/06 04:19:58;;;;;;;12.95;5.78;;;8.20;99.90;;;;;;5028049;28;20025;-20
2023/12/06 04:22:24;;;;;;;10.33;5.10;;;7.20;99.90;;;;;;4988067;28;20086;-21
2023/12/06 04:24:50;;;;;;;12.18;5.32;;;7.20;99.90;;;;;;5010202;28;20247;-20
2023/12/06 04:27:15;;;;;;;10.27;4.70;;;7.20;99.90;;;;;;5029465;28;20042;-20
2023/12/06 04:29:41;;;;;;;9.60;4.60;;;7.30;99.90;;;;;;4986821;28;20021;-21
2023/12/06 04:32:07;;;;;;;9.03;4.17;;;7.30;99.90;;;;;;5029973;28;20379;-19
2023/12/06 04:34:35;;;;;;;8.77;4.40;;;7.30;99.90;;;;;;5008547;28;20040;-20
2023/12/06 04:37:01;;;;;;;8.85;4.25;;;7.40;99.90;;;;;;5003981;28;20029;-19
2023/12/06 04:39:27;;;;;;;8.63;4.33;;;7.30;99.90;;;;;;5018623;28;20394;-21
2023/12/06 04:41:53;;;;;;;7.70;3.67;;;7.40;99.90;;;;;;5019305;28;20448;-20
2023/12/06 04:44:18;;;;;;;8.18;3.72;;;7.40;99.90;;;;;;5013158;28;20029;-19
2023/12/06 04:46:44;;;;;;;8.00;3.90;;;7.40;99.90;;;;;;5003258;28;20035;-19
2023/12/06 04:49:09;;;;;;;6.27;3.80;;;7.40;99.90;;;;;;5028058;28;20505;-19
2023/12/06 04:51:35;;;;;;;6.28;3.50;;;7.40;99.90;;;;;;5015756;28;20306;-20
2023/12/06 04:54:01;;;;;;;7.87;4.13;;;7.40;99.90;;;;;;4992586;28;20491;-19
2023/12/06 04:56:26;;;;;;;8.77;4.60;;;7.40;99.90;;;;;;5005899;28;20037;-20
2023/12/06 04:58:52;;;;;;;9.10;4.47;;;7.40;99.90;;;;;;5028022;28;21183;-19
2023/12/06 05:01:18;;;;;;;7.47;4.18;;;7.40;99.90;;;;;;5005967;28;20660;-20
2023/12/06 05:03:43;;;;;;;9.40;4.63;;;7.40;99.90;;;;;;5028812;28;20021;-20
2023/12/06 05:06:09;;;;;;;8.20;4.47;;;7.40;99.90;;;;;;5026220;28;20052;-19
2023/12/06 05:08:35;;;;;;;8.27;4.45;;;7.40;99.90;;;;;;5016918;28;20493;-21
2023/12/06 05:11:01;;;;;;;8.98;4.63;;;7.40;99.90;;;;;;5019029;28;20040;-20
2023/12/06 05:13:26;;;;;;;9.13;4.70;;;7.40;99.90;;;;;;5016167;28;20104;-20
2023/12/06 05:15:52;;;;;;;9.57;4.63;;;7.40;99.90;;;;;;5002786;28;20027;-20
2023/12/06 05:18:19;;;;;;;9.17;4.70;;;7.30;99.90;;;;;;5021855;28;20034;-19
2023/12/06 05:20:44;;;;;;;10.30;4.78;;;7.30;99.90;;;;;;5028237;28;20699;-19
2023/12/06 05:23:10;;;;;;;9.95;4.80;;;7.30;99.90;;;;;;5028023;28;20061;-20
2023/12/06 05:25:36;;;;;;;11.23;5.33;;;7.30;99.90;;;;;;5010386;28;20044;-22
2023/12/06 05:28:01;;;;;;;9.85;5.22;;;7.40;99.90;;;;;;5016688;28;20035;-22
2023/12/06 05:30:27;;;;;;;8.67;4.40;;;7.30;99.90;;;;;;5019759;28;20124;-22
2023/12/06 05:32:54;;;;;;;9.15;4.95;;;7.30;99.90;;;;;;4987764;28;20033;-22
2023/12/06 05:35:20;;;;;;;10.50;4.85;;;7.30;99.90;;;;;;5029182;28;20075;-22
2023/12/06 05:37:46;;;;;;;9.87;4.80;;;7.30;99.90;;;;;;5007440;28;20101;-22
2023/12/06 05:40:12;;;;;;;11.27;4.88;;;7.40;99.90;;;;;;5005636;28;20087;-23
2023/12/06 05:42:38;;;;;;;9.65;4.65;;;7.30;99.90;;;;;;4989570;28;20056;-22
2023/12/06 05:45:05;;;;;;;9.67;5.00;;;7.40;99.90;;;;;;5027418;28;20186;-22
2023/12/06 05:47:30;;;;;;;9.00;4.67;;;7.30;99.90;;;;;;5002862;28;20334;-22
2023/12/06 05:49:56;;;;;;;10.32;4.88;;;7.30;99.90;;;;;;5002783;28;20706;-22
2023/12/06 05:52:22;;;;;;;9.20;4.90;;;7.30;99.90;;;;;;5025506;28;20149;-22
2023/12/06 05:54:47;;;;;;;9.43;4.95;;;7.30;99.90;;;;;;5011736;28;20033;-22
2023/12/06 05:57:13;;;;;;;8.10;4.30;;;7.30;99.90;;;;;;4998771;28;20033;-22
2023/12/06 05:59:39;;;;;;;8.88;4.53;;;7.30;99.90;;;;;;5012317;28;20025;-22
2023/12/06 06:02:05;;;;;;;7.95;4.30;;;7.40;99.90;;;;;;4983383;28;20041;-22
2023/12/06 06:04:30;;;;;;;7.40;3.77;;;7.30;99.90;;;;;;5012449;28;20170;-22
2023/12/06 06:06:56;;;;;;;9.13;4.40;;;7.30;99.90;;;;;;5018552;28;20041;-22
2023/12/06 06:09:22;;;;;;;9.48;4.07;;;7.30;99.90;;;;;;5025355;28;20036;-22
2023/12/06 06:11:49;;;;;;;7.93;4.30;;;7.30;99.90;;;;;;5002213;28;20029;-22
2023/12/06 06:14:14;;;;;;;7.22;3.72;;;7.30;99.90;;;;;;5005849;28;20117;-22
2023/12/06 06:16:40;;;;;;;8.70;4.38;;;7.30;99.90;;;;;;5025552;28;20037;-22
2023/12/06 06:19:06;;;;;;;9.00;3.97;;;7.30;99.90;;;;;;4985336;28;20029;-22
2023/12/06 06:21:31;;;;;;;8.20;4.30;;;7.30;99.90;;;;;;5019330;28;20017;-22
2023/12/06 06:23:57;;;;;;;8.73;4.30;;;7.30;99.90;;;;;;5009328;28;20083;-22
2023/12/06 06:26:23;;;;;;;9.07;4.37;;;7.30;99.90;;;;;;5024398;28;20026;-20
2023/12/06 06:28:48;;;;;;;7.28;3.78;;;7.30;99.90;;;;;;4997709;28;20029;-20
2023/12/06 06:31:14;;;;;;;8.77;4.30;;;7.30;99.90;;;;;;5010149;28;20036;-19
2023/12/06 06:33:40;;;;;;;7.73;4.07;;;7.30;99.90;;;;;;5000949;28;20021;-20
2023/12/06 06:36:06;;;;;;;6.28;3.35;;;7.30;99.90;;;;;;5023406;28;20113;-19
2023/12/06 06:38:32;;;;;;;4.93;2.83;;;7.30;99.90;;;;;;5002713;28;20036;-19
2023/12/06 06:40:58;;;;;;;7.72;4.32;;;7.30;99.90;;;;;;5022377;28;20086;-20
2023/12/06 06:43:23;;;;;;;9.05;4.45;;;7.30;99.90;;;;;;4990018;28;20025;-19
2023/12/06 06:45:50;;;;;;;8.23;4.10;;;7.30;99.90;;;;;;5018255;28;20064;-21
2023/12/06 06:48:15;;;;;;;6.57;3.60;;;7.30;99.90;;;;;;4999824;28;20394;-19
2023/12/06 06:50:41;;;;;;;8.33;4.23;;;7.30;99.90;;;;;;4994117;28;20774;-21
2023/12/06 06:53:10;;;;;;;6.45;3.72;;;7.40;99.90;;;;;;5011834;28;20443;-19
2023/12/06 06:55:36;;;;;;;9.20;4.47;;;7.30;99.90;;;;;;5011616;28;20110;-20
2023/12/06 06:58:03;;;;;;;7.27;4.20;;;7.30;99.90;;;;;;5002629;28;20548;-20
2023/12/06 07:00:29;;;;;;;8.75;4.28;;;7.20;99.90;;;;;;5030188;28;20025;-20
2023/12/06 07:02:55;;;;;;;8.77;4.53;;;7.20;99.90;;;;;;5027900;28;20064;-20
2023/12/06 07:05:20;;;;;;;7.37;3.90;;;7.20;99.90;;;;;;4994092;28;20681;-19
2023/12/06 07:07:46;;;;;;;7.25;3.88;;;7.10;99.90;;;;;;5016718;28;20033;-20
2023/12/06 07:10:12;;;;;;;8.50;4.10;;;7.00;99.90;;;;;;4999161;28;20112;-20
2023/12/06 07:12:39;;;;;;;7.88;3.88;;;6.90;99.90;;;;;;5014097;28;20682;-20
2023/12/06 07:15:05;;;;;;;6.75;3.33;;;6.90;99.90;;;;;;4997886;28;20049;-20
2023/12/06 07:17:31;;;;;;;7.20;3.20;;;6.80;99.90;;;;;;5026274;28;20036;-20
2023/12/06 07:19:58;;;;;;;7.32;3.72;;;6.70;99.90;;;;;;5003410;28;20033;-20
2023/12/06 07:22:24;;;;;;;7.40;3.50;;;6.70;99.90;;;;;;5020841;28;20014;-20
2023/12/06 07:24:49;;;;;;;6.80;3.37;;;6.60;99.90;;;;;;5001598;28;20099;-20
2023/12/06 07:27:15;;;;;;;6.43;3.65;;;6.50;99.90;;;;;;4993096;28;20029;-20
2023/12/06 07:29:42;;;;;;;6.37;3.07;;;6.50;99.90;;;;;;5008085;28;20988;-19
2023/12/06 07:32:08;;;;;;;7.35;3.60;;;6.40;99.90;;;;;;5011428;28;20025;-20
2023/12/06 07:34:34;;;;;;;6.18;3.50;;;6.40;99.90;;;;;;5029724;28;20090;-20
2023/12/06 07:37:00;;;;;;;7.47;3.58;;;6.40;99.90;;;;;;4999347;28;20474;-22
2023/12/06 07:39:26;;;;;;;6.40;3.23;;;6.40;99.90;;;;;;5026909;28;20072;-22
2023/12/06 07:41:51;;;;;;;5.78;3.20;;;6.40;99.90;;;;;;5017635;28;20096;-22
2023/12/06 07:44:18;;;;;;;4.63;2.80;;;6.40;99.90;;;;;;5013134;28;20471;-22
2023/12/06 07:46:44;;;;;;;7.07;3.10;;;6.40;99.90;;;;;;5031718;28;21517;-20
2023/12/06 07:49:10;;;;;;;6.78;3.60;;;6.40;99.90;;;;;;5032603;28;20043;-20
2023/12/06 07:51:38;;;;;;;7.17;3.53;;;6.40;99.90;;;;;;4977426;28;20025;-20
2023/12/06 07:54:04;;;;;;;6.85;3.25;;;6.40;99.90;;;;;;5024949;28;20678;-20
2023/12/06 07:56:30;;;;;;;8.30;3.75;;;6.40;99.90;;;;;;4982741;28;20038;-20
2023/12/06 07:58:57;;;;;;;7.03;3.37;;;6.40;99.90;;;;;;5004268;28;20394;-20
2023/12/06 08:01:30;;;;;;;6.68;3.47;;;6.40;99.90;;;;;;4997892;28;20837;-20
2023/12/06 08:03:56;;;;;;;5.38;2.65;;;6.50;99.90;;;;;;5031164;28;20118;-20
2023/12/06 08:06:21;;;;;;;5.80;3.13;;;6.50;99.90;;;;;;5004259;28;20121;-21
2023/12/06 08:08:50;;;;;;;6.43;3.03;;;6.50;99.90;;;;;;5029820;28;20111;-20
2023/12/06 08:11:16;;;;;;;7.25;3.20;;;6.50;99.90;;;;;;4987341;28;20037;-21
2023/12/06 08:13:42;;;;;;;6.77;3.37;;;6.50;99.90;;;;;;5022010;28;20585;-20
2023/12/06 08:16:08;;;;;;;6.25;3.35;;;6.60;99.90;;;;;;5019500;28;20048;-20
2023/12/06 08:18:34;;;;;;;6.95;3.20;;;6.60;99.90;;;;;;5000648;28;20120;-19
2023/12/06 08:20:59;;;;;;;7.47;3.53;;;6.60;99.90;;;;;;5027740;28;20029;-19
2023/12/06 08:23:25;;;;;;;6.80;3.58;;;6.60;99.90;;;;;;4998918;28;20235;-20
2023/12/06 08:25:51;;;;;;;5.20;2.80;;;6.60;99.90;;;;;;5029519;28;20124;-20
2023/12/06 08:28:16;;;;;;;5.85;3.15;;;6.60;99.90;;;;;;5016415;28;20525;-21
2023/12/06 08:30:43;;;;;;;5.53;2.90;;;6.60;99.90;;;;;;4999599;28;20060;-20
2023/12/06 08:33:09;;;;;;;6.60;3.25;;;6.60;99.90;;;;;;5010398;28;20398;-21
2023/12/06 08:35:34;;;;;;;8.03;3.23;;;6.70;99.90;;;;;;5027334;28;20144;-20
2023/12/06 08:38:00;;;;;;;6.53;3.38;;;6.70;99.90;;;;;;4985898;28;20033;-20
2023/12/06 08:40:26;;;;;;;6.53;3.47;;;6.80;99.90;;;;;;5024485;28;20876;-20
2023/12/06 08:42:52;;;;;;;6.30;3.22;;;6.80;99.90;;;;;;5015988;28;20029;-20
2023/12/06 08:45:18;;;;;;;6.88;3.47;;;6.80;99.90;;;;;;4983892;28;20035;-22
2023/12/06 08:47:43;;;;;;;7.03;3.30;;;6.80;99.90;;;;;;5018920;28;20025;-22
2023/12/06 08:50:10;;;;;;;7.40;3.75;;;6.80;99.90;;;;;;5010838;28;20107;-22
2023/12/06 08:52:35;;;;;;;7.18;3.58;;;6.90;99.90;;;;;;4983194;28;20797;-22
2023/12/06 08:55:06;;;;;;;7.37;3.47;;;7.00;99.90;;;;;;5027631;28;20721;-22
2023/12/06 08:57:31;;;;;;;8.02;3.65;;;7.10;99.90;;;;;;4999533;28;23386;-20
2023/12/06 08:59:57;;;;;;;7.20;3.63;;;7.10;99.90;;;;;;5003571;28;20084;-21
2023/12/06 09:02:24;;;;;;;6.85;3.50;;;7.20;99.90;;;;;;4997329;28;20112;-20
2023/12/06 09:04:51;;;;;;;6.88;3.50;;;7.20;99.90;;;;;;5027735;28;20025;-20
2023/12/06 09:07:17;;;;;;;6.85;3.53;;;7.30;99.90;;;;;;5017116;28;20041;-20
2023/12/06 09:09:45;;;;;;;7.43;3.50;;;7.50;99.90;;;;;;5001067;28;20021;-20
2023/12/06 09:12:11;;;;;;;6.53;3.22;;;7.60;99.90;;;;;;5005062;28;20044;-20
2023/12/06 09:14:37;;;;;;;5.63;3.17;;;7.70;99.90;;;;;;5015091;28;20399;-20
2023/12/06 09:17:03;;;;;;;6.40;3.00;;;7.90;99.90;;;;;;5003318;28;20025;-21
2023/12/06 09:19:30;;;;;;;5.70;2.90;;;8.00;99.90;;;;;;5025083;28;20379;-20
2023/12/06 09:21:56;;;;;;;7.07;3.22;;;8.10;99.90;;;;;;5022456;28;20704;-21
2023/12/06 09:24:21;;;;;;;6.47;3.85;;;8.20;99.90;;;;;;4967183;28;20184;-20
2023/12/06 09:26:47;;;;;;;6.97;3.43;;;8.30;99.90;;;;;;5031563;28;20376;-20
2023/12/06 09:29:13;;;;;;;6.93;3.30;;;8.40;99.90;;;;;;5014939;28;20045;-20
2023/12/06 09:31:39;;;;;;;7.20;3.15;;;8.40;99.90;;;;;;5027353;28;20086;-20
2023/12/06 09:34:06;;;;;;;8.55;3.33;;;8.50;99.90;;;;;;5015870;28;20438;-21
2023/12/06 09:36:32;;;;;;;8.70;3.67;;;8.50;99.90;;;;;;5028807;28;20027;-20
2023/12/06 09:38:59;;;;;;;5.68;3.05;;;8.50;99.90;;;;;;5008641;28;20052;-21
2023/12/06 09:41:29;;;;;;;5.20;3.00;;;8.50;99.90;;;;;;5015784;28;20038;-20
2023/12/06 09:43:56;;;;;;;5.88;3.00;;;8.50;99.90;;;;;;5022826;28;20543;-20
2023/12/06 09:46:23;;;;;;;5.97;2.80;;;8.60;99.90;;;;;;5000008;28;20106;-19
2023/12/06 09:48:48;;;;;;;6.15;3.40;;;8.60;99.90;;;;;;5000878;28;20036;-20
2023/12/06 09:51:15;;;;;;;6.35;3.15;;;8.60;99.90;;;;;;5025817;28;20479;-20
2023/12/06 09:53:41;;;;;;;7.07;3.47;;;8.60;99.90;;;;;;4983825;28;20037;-20
2023/12/06 09:56:10;;;;;;;5.90;3.23;;;8.60;99.90;;;;;;4985351;28;20349;-22
2023/12/06 09:58:36;;;;;;;6.90;3.08;;;8.60;99.90;;;;;;5005560;28;20034;-22
2023/12/06 10:01:03;;;;;;;6.40;3.35;;;8.60;99.90;;;;;;5012237;28;20029;-22
2023/12/06 10:03:29;;;;;;;5.55;3.03;;;8.60;99.90;;;;;;4985433;28;20103;-22
2023/12/06 10:05:59;;;;;;;4.63;2.77;;;8.70;99.90;;;;;;5018468;28;20952;-23
2023/12/06 10:08:25;;;;;;;8.77;3.90;;;8.70;99.90;;;;;;5019321;28;22892;-23
2023/12/06 10:11:06;;;;;;;6.85;3.33;;;8.70;99.90;;;;;;5003327;28;20170;-22
2023/12/06 10:13:37;;;;;;;10.52;3.28;;;8.70;99.90;;;;;;5018831;28;20135;-23
2023/12/06 10:16:13;;;;;;;6.57;3.00;;;8.70;99.90;;;;;;5014407;28;20082;-22
2023/12/06 10:18:40;;;;;;;6.30;3.20;;;8.70;99.90;;;;;;5004844;28;20036;-23
2023/12/06 10:21:06;;;;;;;6.45;3.40;;;8.70;99.90;;;;;;5013756;28;20021;-22
2023/12/06 10:23:32;;;;;;;6.28;3.25;;;8.70;99.90;;;;;;5026551;28;20421;-23
2023/12/06 10:25:58;;;;;;;6.83;3.03;;;8.60;99.90;;;;;;5008023;28;20083;-22
2023/12/06 10:28:24;;;;;;;6.72;3.33;;;8.60;99.90;;;;;;4977101;28;23161;-22
2023/12/06 10:31:02;;;;;;;4.82;2.67;;;8.60;99.90;;;;;;5000597;28;20041;-22
2023/12/06 10:33:30;;;;;;;5.53;2.83;;;8.60;99.90;;;;;;5013048;28;20049;-22
2023/12/06 10:36:00;;;;;;;6.00;3.10;;;8.60;99.90;;;;;;4986818;28;20159;-22
2023/12/06 10:38:28;;;;;;;5.82;3.28;;;8.60;99.90;;;;;;4973624;28;20052;-23
2023/12/06 10:40:55;;;;;;;9.15;3.20;;;8.60;99.90;;;;;;4998665;28;20086;-22
2023/12/06 10:43:22;;;;;;;6.25;3.10;;;8.60;99.90;;;;;;4996161;28;20651;-23
2023/12/06 10:45:50;;;;;;;7.05;3.35;;;8.60;99.90;;;;;;5007758;28;20090;-23
2023/12/06 10:48:18;;;;;;;6.50;3.40;;;8.60;99.90;;;;;;4996829;28;20026;-22
2023/12/06 10:50:45;;;;;;;5.03;2.40;;;8.60;99.90;;;;;;5007515;28;20119;-22
2023/12/06 10:53:16;;;;;;;5.85;3.00;;;8.60;99.90;;;;;;5003928;28;20052;-22
2023/12/06 10:55:42;;;;;;;5.82;2.88;;;8.60;99.90;;;;;;5020124;28;20079;-23
2023/12/06 10:58:09;;;;;;;6.90;3.25;;;8.50;99.90;;;;;;4998692;28;20128;-23
2023/12/06 11:00:35;;;;;;;7.13;3.37;;;8.50;99.90;;;;;;5029417;28;20095;-23
2023/12/06 11:03:01;;;;;;;5.65;2.83;;;8.50;99.90;;;;;;5015941;28;20363;-22
2023/12/06 11:05:32;;;;;;;6.38;3.00;;;9.90;99.90;;;;;;5017999;28;20496;-22
2023/12/06 11:08:16;;;;;;;6.88;3.40;;;8.50;99.90;;;;;;5016239;28;20059;-22
2023/12/06 11:10:48;;;;;;;6.15;3.22;;;8.50;99.90;;;;;;5024050;28;20706;-23
2023/12/06 11:13:38;;;;;;;6.83;3.47;;;8.60;99.90;;;;;;5001957;28;20038;-22
2023/12/06 11:16:13;;;;;;;6.95;3.17;;;8.50;99.90;;;;;;5006846;28;20063;-21
2023/12/06 11:18:49;;;;;;;7.80;3.65;;;8.50;99.90;;;;;;5019220;28;20445;-20
2023/12/06 11:21:18;;;;;;;8.48;3.45;;;8.50;99.90;;;;;;4974772;28;20563;-20
2023/12/06 11:23:46;;;;;;;7.55;3.30;;;8.60;99.90;;;;;;5013761;28;20095;-20
2023/12/06 11:26:12;;;;;;;5.83;3.13;;;8.60;99.90;;;;;;5016822;28;20116;-20
2023/12/06 11:28:40;;;;;;;6.68;3.10;;;8.60;99.90;;;;;;5002980;28;20033;-20
2023/12/06 11:31:07;;;;;;;7.03;3.50;;;8.70;99.90;;;;;;5023920;28;20465;-21
2023/12/06 11:33:37;;;;;;;6.55;3.00;;;8.70;99.90;;;;;;4998659;28;20478;-20
2023/12/06 11:36:03;;;;;;;6.60;3.20;;;8.70;99.90;;;;;;5019639;28;20025;-21
2023/12/06 11:38:37;;;;;;;6.20;3.20;;;8.80;99.90;;;;;;5011499;28;20104;-20
2023/12/06 11:41:06;;;;;;;6.05;2.90;;;8.80;99.90;;;;;;5005797;28;20029;-21
2023/12/06 11:43:39;;;;;;;5.75;2.80;;;8.80;99.90;;;;;;5001629;28;20021;-20
2023/12/06 11:46:07;;;;;;;6.38;2.95;;;8.80;99.90;;;;;;5022919;28;20029;-21
2023/12/06 11:48:39;;;;;;;5.53;3.00;;;8.80;99.90;;;;;;5008351;28;20021;-20
2023/12/06 11:51:05;;;;;;;4.87;2.53;;;8.80;99.90;;;;;;4970255;28;20524;-20
2023/12/06 11:53:35;;;;;;;5.72;2.78;;;8.80;99.90;;;;;;5014257;28;20529;-20
2023/12/06 11:56:01;;;;;;;6.43;2.80;;;8.80;99.90;;;;;;5014553;28;20040;-21
2023/12/06 11:58:30;;;;;;;5.80;2.75;;;8.80;99.90;;;;;;5005219;28;20033;-20
2023/12/06 12:00:57;;;;;;;7.87;3.70;;;8.90;99.90;;;;;;4984067;28;20300;-21
2023/12/06 12:03:25;;;;;;;6.32;3.00;;;8.90;99.90;;;;;;5005196;28;20032;-20
2023/12/06 12:05:51;;;;;;;5.45;2.80;;;8.90;99.90;;;;;;5016593;28;20450;-21
2023/12/06 12:08:17;;;;;;;6.35;2.72;;;8.90;99.90;;;;;;5002120;28;20048;-19
2023/12/06 12:10:43;;;;;;;6.70;3.10;;;8.90;99.90;;;;;;5015539;28;20052;-20
2023/12/06 12:13:19;;;;;;;4.63;2.57;;;9.00;99.90;;;;;;5012158;28;20326;-20
2023/12/06 12:15:57;;;;;;;5.95;2.78;;;9.00;99.90;;;;;;4962072;28;20051;-23
2023/12/06 12:18:27;;;;;;;4.60;2.55;;;9.10;99.90;;;;;;5025950;28;20025;-22
2023/12/06 12:20:55;;;;;;;5.25;2.92;;;9.10;99.90;;;;;;4993038;28;20040;-22
2023/12/06 12:23:22;;;;;;;6.03;3.10;;;9.20;99.90;;;;;;5024842;28;20051;-22
2023/12/06 12:25:51;;;;;;;5.55;2.85;;;9.20;99.90;;;;;;4995961;28;20037;-22
2023/12/06 12:28:20;;;;;;;4.43;2.47;;;9.20;99.90;;;;;;5014871;28;20037;-22
2023/12/06 12:30:52;;;;;;;5.22;2.53;;;9.20;99.90;;;;;;5019918;28;20487;-22
2023/12/06 12:33:19;;;;;;;5.55;2.65;;;9.20;99.90;;;;;;4999629;28;20159;-23
2023/12/06 12:35:45;;;;;;;4.70;2.10;;;9.30;99.90;;;;;;5029993;28;20057;-22
2023/12/06 12:38:11;;;;;;;6.82;2.80;;;9.30;99.90;;;;;;5017020;28;20590;-23
2023/12/06 12:40:41;;;;;;;4.40;2.35;;;9.30;99.90;;;;;;5019233;28;20033;-23
2023/12/06 12:43:07;;;;;;;4.40;2.13;;;9.30;99.90;;;;;;4997622;28;20124;-22
2023/12/06 12:45:33;;;;;;;4.20;2.13;;;9.30;99.90;;;;;;5026617;28;20028;-23
2023/12/06 12:47:59;;;;;;;5.57;2.73;;;9.30;99.90;;;;;;5000655;28;21062;-22
2023/12/06 12:50:25;;;;;;;3.80;2.10;;;9.40;99.90;;;;;;5026126;28;20033;-23
2023/12/06 12:52:54;;;;;;;3.70;2.30;;;9.30;99.90;;;;;;4995036;28;20067;-22